Saint Clement, Missouri
Current Conditions -  °F | °C
As of 6:35 PM on Friday 24 Oct 2014 (Local Time) from KPPQ Reporting Station
Clear Clear  
Wind Chill: 66°   Ceiling: Unl
Heat Index: 66°   Visibility: 10mi
Dew Point: 51°   Wind: 5mph
Humidity: 59%   Direction: 180°S
Pressure: 29.98"   Gusts: NA
Location:  39.321°N, 91.1912°W
Report Text: KPPQ 242335Z AUTO 18004KT 10SM CLR 19/11 A2998 RMK AO2 T01890107
Loading
Personal Weather Stations






























Interactive Weather Map New forecast layout! Learn more

10-Day Weather Forecast

Advertisements
Track Severe Weather on mobile